Time;durP1;ratioP1;P1;durP2;ratioP2;P2;SDS_P1;SDS_P2;PMS_P1;PMS_P2;Temp;Humidity;BMP_temperature;BMP_pressure;BME280_temperature;BME280_humidity;BME280_pressure;Samples;Min_cycle;Max_cycle;Signal;HPM_P1;HPM_P2
2021/06/03 00:02:06;;;;;;;6.32;2.70;;;16.00;64.40;;;;;;5075139;28;20029;-73
2021/06/03 00:04:32;;;;;;;3.63;2.80;;;16.00;64.30;;;;;;5075209;28;20020;-73
2021/06/03 00:06:58;;;;;;;4.43;2.60;;;15.90;64.20;;;;;;5075358;28;20028;-72
2021/06/03 00:09:24;;;;;;;3.92;2.67;;;15.90;64.20;;;;;;5074777;28;20028;-73
2021/06/03 00:11:50;;;;;;;8.43;3.00;;;15.90;64.30;;;;;;5075131;28;20056;-73
2021/06/03 00:14:17;;;;;;;6.75;3.00;;;15.90;64.30;;;;;;5075007;28;20502;-73
2021/06/03 00:16:43;;;;;;;6.10;2.88;;;15.80;64.20;;;;;;5074899;28;20029;-74
2021/06/03 00:19:10;;;;;;;7.00;3.00;;;15.80;64.10;;;;;;5074844;28;20032;-73
2021/06/03 00:21:38;;;;;;;6.55;2.92;;;15.80;63.90;;;;;;5073583;28;20024;-73
2021/06/03 00:24:05;;;;;;;4.70;2.80;;;15.80;63.80;;;;;;5074747;28;20383;-73
2021/06/03 00:26:31;;;;;;;3.67;2.88;;;15.80;63.90;;;;;;5074594;28;20040;-73
2021/06/03 00:28:57;;;;;;;7.18;3.00;;;15.80;64.10;;;;;;5074433;28;20024;-73
2021/06/03 00:31:22;;;;;;;4.18;2.78;;;15.70;64.20;;;;;;5074916;28;20056;-73
2021/06/03 00:33:48;;;;;;;7.47;3.13;;;15.70;64.20;;;;;;5074536;28;20073;-73
2021/06/03 00:36:14;;;;;;;9.27;3.28;;;15.70;64.20;;;;;;5074120;28;20095;-73
2021/06/03 00:38:40;;;;;;;4.47;3.08;;;15.70;64.10;;;;;;5074275;28;20035;-73
2021/06/03 00:41:07;;;;;;;5.82;2.85;;;15.70;64.10;;;;;;5074548;28;20116;-73
2021/06/03 00:43:34;;;;;;;8.13;3.30;;;15.60;64.00;;;;;;5074396;28;20028;-73
2021/06/03 00:46:00;;;;;;;5.20;2.83;;;15.60;64.10;;;;;;5074666;28;20103;-73
2021/06/03 00:48:27;;;;;;;6.72;3.53;;;15.60;64.20;;;;;;5073145;28;20081;-73
2021/06/03 00:50:55;;;;;;;6.68;3.00;;;15.60;64.30;;;;;;5073202;28;20083;-73
2021/06/03 00:53:21;;;;;;;4.82;2.72;;;15.60;64.30;;;;;;5074544;28;20079;-73
2021/06/03 00:55:52;;;;;;;6.60;2.80;;;15.60;64.90;;;;;;5073789;28;20067;-74
2021/06/03 00:58:18;;;;;;;7.85;3.17;;;15.60;64.30;;;;;;5074216;28;20143;-73
2021/06/03 01:00:44;;;;;;;5.95;2.70;;;15.60;64.30;;;;;;5073946;28;20520;-74
2021/06/03 01:03:10;;;;;;;3.40;2.80;;;15.60;64.40;;;;;;5074064;28;20051;-74
2021/06/03 01:05:42;;;;;;;11.38;3.20;;;15.60;64.40;;;;;;5073870;28;20028;-73
2021/06/03 01:08:29;;;;;;;4.88;2.70;;;15.60;64.40;;;;;;5074052;28;20086;-73
2021/06/03 01:11:18;;;;;;;3.05;2.60;;;15.60;64.50;;;;;;5074346;28;20024;-74
2021/06/03 01:13:46;;;;;;;5.43;2.75;;;15.60;64.50;;;;;;5068115;28;20490;-74
2021/06/03 01:16:13;;;;;;;7.95;3.00;;;15.60;64.40;;;;;;5073774;28;20078;-73
2021/06/03 01:18:42;;;;;;;7.55;3.08;;;15.50;64.30;;;;;;5072354;28;20036;-74
2021/06/03 01:21:16;;;;;;;5.53;2.90;;;15.60;64.60;;;;;;5073669;28;20032;-73
2021/06/03 01:23:53;;;;;;;7.43;3.03;;;15.60;64.60;;;;;;5073832;28;20415;-73
2021/06/03 01:26:19;;;;;;;4.63;2.72;;;15.50;64.50;;;;;;5073562;28;20107;-73
2021/06/03 01:28:46;;;;;;;6.22;2.88;;;15.50;64.50;;;;;;5073294;28;20089;-73
2021/06/03 01:31:13;;;;;;;9.57;2.83;;;15.50;65.00;;;;;;5073444;28;20497;-72
2021/06/03 01:33:42;;;;;;;8.13;2.60;;;15.50;64.30;;;;;;5073811;28;20111;-73
2021/06/03 01:36:12;;;;;;;7.55;3.15;;;15.50;64.70;;;;;;5073598;28;20024;-72
2021/06/03 01:38:40;;;;;;;8.10;2.92;;;15.40;64.10;;;;;;5073113;28;20382;-73
2021/06/03 01:41:08;;;;;;;10.60;3.05;;;15.40;64.00;;;;;;5073469;28;20048;-72
2021/06/03 01:43:36;;;;;;;5.55;2.90;;;15.40;64.10;;;;;;5073214;28;20032;-72
2021/06/03 01:46:03;;;;;;;4.00;2.60;;;15.50;64.10;;;;;;5073054;28;20047;-72
2021/06/03 01:48:29;;;;;;;6.43;2.70;;;15.40;64.20;;;;;;5073381;28;20103;-74
2021/06/03 01:50:57;;;;;;;8.65;3.00;;;15.40;64.10;;;;;;5072326;28;20108;-73
2021/06/03 01:53:26;;;;;;;7.38;2.78;;;15.40;64.00;;;;;;5073441;28;20039;-74
2021/06/03 01:56:00;;;;;;;5.57;2.92;;;15.30;64.00;;;;;;5073270;28;20021;-74
2021/06/03 01:58:26;;;;;;;6.80;2.83;;;15.30;64.00;;;;;;5073109;28;20371;-73
2021/06/03 02:00:52;;;;;;;6.05;2.92;;;15.30;64.00;;;;;;5073201;28;20020;-73
2021/06/03 02:03:22;;;;;;;5.13;3.13;;;15.30;63.90;;;;;;5073358;28;20374;-73
2021/06/03 02:05:48;;;;;;;4.43;3.15;;;15.30;63.90;;;;;;5071854;28;20437;-73
2021/06/03 02:08:14;;;;;;;3.60;2.28;;;15.30;63.90;;;;;;5073175;28;20032;-73
2021/06/03 02:10:40;;;;;;;4.05;2.60;;;15.30;64.30;;;;;;5073366;28;20032;-73
2021/06/03 02:13:40;;;;;;;3.83;2.60;;;15.30;63.80;;;;;;5072898;28;20036;-73
2021/06/03 02:16:13;;;;;;;4.05;2.58;;;15.30;63.80;;;;;;5071939;28;20020;-73
2021/06/03 02:19:00;;;;;;;4.25;3.08;;;15.30;63.80;;;;;;5073013;28;20033;-73
2021/06/03 02:21:27;;;;;;;5.43;2.75;;;15.30;63.60;;;;;;5073201;28;20035;-74
2021/06/03 02:23:54;;;;;;;5.68;2.70;;;15.30;63.70;;;;;;5072808;28;20032;-73
2021/06/03 02:26:20;;;;;;;2.75;2.42;;;15.30;63.70;;;;;;5072646;28;20025;-73
2021/06/03 02:28:48;;;;;;;4.45;2.80;;;15.30;63.70;;;;;;5072671;28;20025;-74
2021/06/03 02:31:14;;;;;;;4.00;2.83;;;15.30;63.70;;;;;;5072920;28;20044;-74
2021/06/03 02:33:40;;;;;;;4.78;2.38;;;15.20;63.60;;;;;;5072773;28;20028;-74
2021/06/03 02:36:07;;;;;;;5.93;2.92;;;15.20;63.40;;;;;;5072484;28;20390;-74
2021/06/03 02:38:35;;;;;;;3.00;2.70;;;15.30;63.40;;;;;;5072708;28;20039;-74
2021/06/03 02:41:05;;;;;;;8.45;2.70;;;15.30;63.40;;;;;;5072838;28;20040;-75
2021/06/03 02:43:34;;;;;;;6.25;2.60;;;15.30;63.30;;;;;;5072611;28;20025;-74
2021/06/03 02:46:01;;;;;;;5.50;3.45;;;15.40;63.30;;;;;;5072808;28;20489;-74
2021/06/03 02:48:27;;;;;;;4.82;2.60;;;15.40;63.10;;;;;;5072878;28;20028;-74
2021/06/03 02:50:53;;;;;;;6.13;2.70;;;15.40;63.00;;;;;;5071414;28;20123;-74
2021/06/03 02:53:18;;;;;;;5.30;2.63;;;15.40;63.00;;;;;;5072866;28;20158;-73
2021/06/03 02:55:45;;;;;;;10.20;2.88;;;15.40;63.00;;;;;;5072800;28;20051;-74
2021/06/03 02:58:11;;;;;;;4.45;2.58;;;15.40;62.90;;;;;;5073321;28;20459;-74
2021/06/03 03:00:37;;;;;;;10.10;3.13;;;15.40;62.90;;;;;;5076234;28;20028;-74
2021/06/03 03:03:06;;;;;;;4.30;2.92;;;15.40;62.80;;;;;;5076020;28;20035;-74
2021/06/03 03:05:32;;;;;;;4.00;2.63;;;15.40;62.70;;;;;;5076335;28;20028;-74
2021/06/03 03:07:58;;;;;;;12.10;3.28;;;15.50;62.60;;;;;;5076704;28;20059;-74
2021/06/03 03:10:32;;;;;;;4.97;2.78;;;15.50;62.60;;;;;;5076355;28;20033;-74
2021/06/03 03:12:58;;;;;;;3.72;2.35;;;15.50;62.50;;;;;;5076119;28;20021;-74
2021/06/03 03:15:25;;;;;;;3.67;2.60;;;15.50;62.40;;;;;;5076189;28;20031;-74
2021/06/03 03:17:51;;;;;;;5.28;2.75;;;15.50;62.30;;;;;;5075861;28;20090;-73
2021/06/03 03:20:18;;;;;;;5.82;2.55;;;15.60;62.20;;;;;;5076482;28;20029;-73
2021/06/03 03:22:45;;;;;;;5.25;2.70;;;15.60;62.10;;;;;;5076074;28;20025;-73
2021/06/03 03:25:13;;;;;;;3.92;2.53;;;15.60;61.90;;;;;;5076370;28;20115;-73
2021/06/03 03:27:41;;;;;;;6.05;2.60;;;15.60;61.90;;;;;;5075788;28;20024;-73
2021/06/03 03:30:08;;;;;;;4.93;2.53;;;15.60;61.80;;;;;;5074771;28;20040;-72
2021/06/03 03:32:34;;;;;;;2.92;2.72;;;15.70;61.70;;;;;;5075705;28;20025;-73
2021/06/03 03:35:00;;;;;;;7.25;2.90;;;15.70;61.70;;;;;;5075926;28;20059;-73
2021/06/03 03:37:28;;;;;;;5.63;2.58;;;15.70;61.70;;;;;;5075581;28;20041;-75
2021/06/03 03:39:55;;;;;;;3.15;2.47;;;15.70;61.60;;;;;;5075094;28;20387;-73
2021/06/03 03:42:21;;;;;;;4.70;2.50;;;15.80;61.60;;;;;;5074883;28;20063;-74
2021/06/03 03:44:47;;;;;;;8.98;3.35;;;15.80;61.70;;;;;;5075551;28;20382;-73
2021/06/03 03:47:13;;;;;;;4.15;2.92;;;15.80;61.70;;;;;;5075243;28;20033;-73
2021/06/03 03:49:39;;;;;;;6.45;2.80;;;15.80;61.60;;;;;;5075604;28;20032;-75
2021/06/03 03:52:05;;;;;;;4.28;2.60;;;15.80;61.30;;;;;;5075117;28;20025;-75
2021/06/03 03:54:31;;;;;;;3.92;2.67;;;15.90;61.30;;;;;;5075062;28;20032;-74
2021/06/03 03:56:57;;;;;;;4.00;2.45;;;15.90;61.10;;;;;;5075129;28;20099;-73
2021/06/03 03:59:24;;;;;;;6.95;3.05;;;15.80;61.00;;;;;;5075278;28;20024;-73
2021/06/03 04:01:54;;;;;;;5.18;2.70;;;15.90;61.10;;;;;;5075038;28;20079;-74
2021/06/03 04:04:21;;;;;;;4.45;2.70;;;15.90;61.10;;;;;;5069991;28;20491;-73
2021/06/03 04:06:47;;;;;;;4.55;3.00;;;15.90;61.10;;;;;;5054963;28;20029;-74
2021/06/03 04:09:13;;;;;;;4.60;2.75;;;15.90;61.00;;;;;;5080209;28;20042;-73
2021/06/03 04:11:39;;;;;;;5.72;2.80;;;16.00;61.00;;;;;;5095214;28;20024;-73
2021/06/03 04:14:05;;;;;;;8.07;2.85;;;16.00;60.90;;;;;;5094604;28;20119;-73
2021/06/03 04:16:31;;;;;;;7.75;3.03;;;16.00;61.00;;;;;;5074897;28;20127;-73
2021/06/03 04:18:56;;;;;;;6.78;2.35;;;16.00;60.90;;;;;;5074575;28;20047;-74
2021/06/03 04:21:22;;;;;;;4.18;2.60;;;16.00;60.70;;;;;;5074638;28;20378;-73
2021/06/03 04:23:48;;;;;;;7.55;3.45;;;16.10;60.70;;;;;;5074250;28;20031;-73
2021/06/03 04:26:15;;;;;;;7.80;3.13;;;16.10;60.80;;;;;;5074586;28;20033;-74
2021/06/03 04:28:41;;;;;;;3.42;2.60;;;16.10;60.60;;;;;;5074584;28;20107;-74
2021/06/03 04:31:06;;;;;;;6.97;2.38;;;16.10;60.60;;;;;;5074008;28;20459;-73
2021/06/03 04:33:32;;;;;;;6.93;2.67;;;16.20;60.50;;;;;;5074333;28;20462;-75
2021/06/03 04:35:58;;;;;;;2.83;2.35;;;16.20;60.30;;;;;;5084755;28;20351;-73
2021/06/03 04:38:24;;;;;;;4.97;2.85;;;16.30;60.30;;;;;;5094553;28;20027;-73
2021/06/03 04:40:49;;;;;;;4.63;2.65;;;16.40;60.20;;;;;;5091271;28;20093;-73
2021/06/03 04:43:16;;;;;;;6.15;2.80;;;16.50;60.10;;;;;;5074208;28;20382;-74
2021/06/03 04:45:42;;;;;;;4.00;2.67;;;16.50;59.80;;;;;;5074371;28;20054;-74
2021/06/03 04:48:08;;;;;;;5.88;2.45;;;16.70;59.70;;;;;;5067825;28;20024;-74
2021/06/03 04:50:36;;;;;;;5.55;2.60;;;16.70;59.40;;;;;;5062662;28;20036;-75
2021/06/03 04:53:02;;;;;;;5.57;3.10;;;16.90;59.30;;;;;;5063310;28;20027;-75
2021/06/03 04:55:28;;;;;;;3.80;3.15;;;17.00;58.90;;;;;;5064372;28;20107;-76
2021/06/03 04:57:55;;;;;;;3.80;2.53;;;17.10;58.80;;;;;;5061010;28;20125;-74
2021/06/03 05:00:26;;;;;;;8.05;3.05;;;17.20;58.60;;;;;;5063435;28;20028;-74
2021/06/03 05:02:52;;;;;;;5.20;2.90;;;17.30;58.60;;;;;;5064360;28;20027;-74
2021/06/03 05:05:18;;;;;;;5.15;2.53;;;17.40;58.30;;;;;;5062749;28;20494;-73
2021/06/03 05:07:46;;;;;;;9.88;2.92;;;17.60;58.10;;;;;;5062621;28;20025;-74
2021/06/03 05:10:12;;;;;;;7.50;2.85;;;17.70;57.90;;;;;;5054876;28;20082;-73
2021/06/03 05:12:39;;;;;;;9.05;3.17;;;17.70;57.80;;;;;;5053333;28;20025;-74
2021/06/03 05:15:07;;;;;;;7.78;2.70;;;17.80;57.80;;;;;;5053632;28;20025;-75
2021/06/03 05:17:35;;;;;;;4.60;2.60;;;17.90;57.50;;;;;;5053679;28;20395;-73
2021/06/03 05:20:01;;;;;;;5.30;2.80;;;18.00;57.10;;;;;;5053309;28;20033;-74
2021/06/03 05:22:27;;;;;;;3.33;2.25;;;18.10;56.80;;;;;;5052845;28;20056;-74
2021/06/03 05:24:53;;;;;;;3.92;2.50;;;18.20;56.70;;;;;;5053270;28;20537;-74
2021/06/03 05:27:18;;;;;;;7.18;2.65;;;18.30;56.40;;;;;;5053398;28;20029;-74
2021/06/03 05:29:44;;;;;;;5.45;2.63;;;18.30;56.20;;;;;;5052113;28;20048;-74
2021/06/03 05:32:10;;;;;;;3.75;2.50;;;18.40;56.10;;;;;;5052146;28;20025;-75
2021/06/03 05:34:36;;;;;;;2.63;2.42;;;18.50;56.20;;;;;;5053539;28;20029;-75
2021/06/03 05:37:03;;;;;;;4.18;2.78;;;18.60;55.80;;;;;;5051706;28;20029;-75
2021/06/03 05:39:28;;;;;;;7.97;2.90;;;18.60;55.50;;;;;;5052063;28;20358;-75
2021/06/03 05:41:54;;;;;;;6.60;3.00;;;18.70;55.40;;;;;;5053386;28;20029;-75
2021/06/03 05:44:20;;;;;;;8.68;2.80;;;18.80;55.30;;;;;;5053321;28;20418;-75
2021/06/03 05:46:46;;;;;;;4.65;2.78;;;18.90;55.20;;;;;;5053161;28;20021;-75
2021/06/03 05:49:12;;;;;;;5.85;2.60;;;18.90;55.10;;;;;;5053017;28;20029;-75
2021/06/03 05:51:41;;;;;;;5.10;3.33;;;19.00;54.90;;;;;;5053902;28;20074;-76
2021/06/03 05:54:09;;;;;;;7.00;2.67;;;19.10;54.70;;;;;;5061629;28;20029;-75
2021/06/03 05:56:35;;;;;;;3.72;2.75;;;19.20;54.70;;;;;;5058180;28;20040;-74
2021/06/03 05:59:01;;;;;;;4.43;2.30;;;19.30;54.80;;;;;;5064807;28;20032;-75
2021/06/03 06:01:28;;;;;;;7.20;3.33;;;19.30;54.70;;;;;;5059244;28;20041;-75
2021/06/03 06:06:26;;;;;;;3.20;2.47;;;19.50;54.30;;;;;;5065693;28;20028;-75
2021/06/03 06:08:56;;;;;;;22.55;3.15;;;19.60;54.30;;;;;;5072793;28;20103;-74
2021/06/03 06:11:24;;;;;;;8.30;2.90;;;19.70;54.10;;;;;;5069765;28;20111;-74
2021/06/03 06:13:51;;;;;;;3.33;2.25;;;19.70;54.00;;;;;;5054275;28;20052;-74
2021/06/03 06:16:17;;;;;;;5.30;2.63;;;19.80;54.00;;;;;;5052959;28;20123;-74
2021/06/03 06:18:43;;;;;;;3.50;2.67;;;19.70;53.80;;;;;;5053042;28;20029;-74
2021/06/03 06:21:10;;;;;;;7.78;2.70;;;19.80;53.80;;;;;;5053131;28;20360;-73
2021/06/03 06:23:37;;;;;;;5.90;2.55;;;19.90;53.70;;;;;;5052093;28;20462;-74
2021/06/03 06:26:04;;;;;;;4.05;2.28;;;19.90;53.50;;;;;;5052855;28;20075;-74
2021/06/03 06:28:30;;;;;;;4.70;2.55;;;19.90;53.50;;;;;;5052993;28;20025;-74
2021/06/03 06:30:57;;;;;;;5.07;3.15;;;20.00;53.60;;;;;;5052877;28;20036;-74
2021/06/03 06:33:23;;;;;;;6.70;2.75;;;20.00;53.60;;;;;;5055946;28;20063;-75
2021/06/03 06:35:50;;;;;;;3.25;2.20;;;19.90;53.70;;;;;;5076804;28;20427;-74
2021/06/03 06:38:20;;;;;;;4.07;2.35;;;20.00;52.90;;;;;;5077009;28;20028;-74
2021/06/03 06:40:47;;;;;;;3.83;2.17;;;20.10;52.40;;;;;;5075848;28;20032;-79
2021/06/03 06:43:13;;;;;;;3.97;2.40;;;20.10;52.00;;;;;;5076477;28;20089;-74
2021/06/03 06:45:39;;;;;;;2.40;2.10;;;20.30;52.00;;;;;;5076696;28;20050;-74
2021/06/03 06:48:07;;;;;;;6.18;2.70;;;20.40;52.00;;;;;;5076552;28;20078;-74
2021/06/03 06:50:35;;;;;;;4.90;2.65;;;20.50;51.90;;;;;;5076529;28;20021;-74
2021/06/03 06:53:00;;;;;;;3.67;2.10;;;20.60;51.30;;;;;;5070794;28;20029;-75
2021/06/03 06:55:27;;;;;;;7.97;2.38;;;20.70;51.00;;;;;;5064278;28;20028;-75
2021/06/03 06:57:53;;;;;;;5.60;2.67;;;20.80;51.20;;;;;;5065047;28;20032;-73
2021/06/03 07:00:24;;;;;;;4.03;2.42;;;20.90;51.00;;;;;;5065005;28;20474;-74
2021/06/03 07:02:50;;;;;;;9.30;2.47;;;20.90;50.90;;;;;;5064002;28;20104;-74
2021/06/03 07:05:16;;;;;;;5.10;2.60;;;21.00;50.90;;;;;;5065432;28;20462;-77
2021/06/03 07:07:42;;;;;;;4.65;2.22;;;21.10;50.60;;;;;;5060683;28;20036;-74
2021/06/03 07:10:09;;;;;;;4.95;2.08;;;21.20;50.90;;;;;;5055968;28;20028;-74
2021/06/03 07:12:36;;;;;;;2.88;2.35;;;21.30;50.00;;;;;;5070497;28;20087;-75
2021/06/03 07:15:03;;;;;;;4.57;2.08;;;21.40;49.60;;;;;;5067410;28;20029;-76
2021/06/03 07:17:29;;;;;;;12.23;2.15;;;21.50;48.90;;;;;;5064293;28;20094;-75
2021/06/03 07:19:55;;;;;;;3.85;2.30;;;21.60;48.40;;;;;;5065242;28;20024;-76
2021/06/03 07:22:20;;;;;;;3.38;2.30;;;21.70;48.10;;;;;;5063993;28;20017;-74
2021/06/03 07:24:46;;;;;;;5.68;2.00;;;21.80;47.40;;;;;;5066247;28;20297;-78
2021/06/03 07:27:12;;;;;;;5.90;1.90;;;21.90;46.80;;;;;;5066154;28;20096;-79
2021/06/03 07:29:39;;;;;;;2.97;2.17;;;21.90;46.70;;;;;;5063417;28;20348;-75
2021/06/03 07:32:06;;;;;;;8.77;2.13;;;22.00;46.70;;;;;;5064566;28;20451;-75
2021/06/03 07:34:32;;;;;;;4.18;1.95;;;22.00;46.80;;;;;;5064930;28;20501;-76
2021/06/03 07:36:57;;;;;;;2.92;2.10;;;22.10;46.40;;;;;;5062835;28;20096;-74
2021/06/03 07:39:23;;;;;;;6.55;2.20;;;22.10;46.30;;;;;;5064622;28;20025;-75
2021/06/03 07:41:50;;;;;;;9.93;2.50;;;22.20;46.10;;;;;;5064705;28;20044;-75
2021/06/03 07:44:17;;;;;;;3.85;1.98;;;22.20;46.20;;;;;;5062194;28;20051;-74
2021/06/03 07:46:43;;;;;;;8.55;1.90;;;22.30;46.00;;;;;;5065498;28;20036;-77
2021/06/03 07:49:13;;;;;;;5.97;1.90;;;22.40;46.00;;;;;;5064013;28;20025;-74
2021/06/03 07:51:39;;;;;;;6.43;1.90;;;22.50;45.70;;;;;;5064931;28;20378;-75
2021/06/03 07:54:05;;;;;;;4.68;2.58;;;22.70;45.20;;;;;;5063483;28;20088;-75
2021/06/03 07:56:31;;;;;;;3.15;2.00;;;22.80;45.50;;;;;;5065610;28;20029;-75
2021/06/03 07:58:57;;;;;;;5.30;2.22;;;23.10;45.70;;;;;;5062498;28;20027;-75
2021/06/03 08:01:22;;;;;;;2.65;2.08;;;23.20;45.70;;;;;;5063907;28;20036;-76
2021/06/03 08:03:48;;;;;;;9.15;2.97;;;23.40;45.40;;;;;;5065696;28;20021;-74
2021/06/03 08:06:14;;;;;;;4.72;2.28;;;23.50;45.20;;;;;;5065349;28;20044;-75
2021/06/03 08:08:40;;;;;;;4.80;1.90;;;23.60;44.80;;;;;;5064883;28;20040;-74
2021/06/03 08:11:07;;;;;;;5.03;3.00;;;23.70;44.20;;;;;;5074967;28;20140;-74
2021/06/03 08:13:34;;;;;;;5.00;2.05;;;23.70;43.90;;;;;;5074881;28;20135;-74
2021/06/03 08:16:00;;;;;;;2.08;1.88;;;23.70;43.70;;;;;;5074782;28;20099;-74
2021/06/03 08:18:26;;;;;;;4.35;2.20;;;23.80;44.10;;;;;;5074542;28;20032;-74
2021/06/03 08:20:57;;;;;;;4.47;1.95;;;23.90;43.50;;;;;;5074667;28;20029;-75
2021/06/03 08:23:24;;;;;;;5.80;2.00;;;23.90;43.60;;;;;;5074801;28;20052;-75
2021/06/03 08:25:50;;;;;;;2.15;1.95;;;24.10;42.90;;;;;;5074453;28;20067;-75
2021/06/03 08:28:17;;;;;;;6.97;2.28;;;24.30;43.00;;;;;;5082165;28;20089;-75
2021/06/03 08:30:43;;;;;;;4.07;2.03;;;24.40;42.50;;;;;;5094649;28;20028;-75
2021/06/03 08:33:09;;;;;;;11.10;2.05;;;24.50;42.10;;;;;;5094618;28;20051;-75
2021/06/03 08:35:36;;;;;;;4.72;2.13;;;24.50;42.30;;;;;;5094509;28;20024;-74
2021/06/03 08:38:07;;;;;;;14.82;2.47;;;24.70;42.20;;;;;;5093078;28;20078;-74
2021/06/03 08:40:46;;;;;;;3.55;2.00;;;24.70;42.10;;;;;;5110118;28;20047;-75
2021/06/03 08:43:13;;;;;;;3.42;1.92;;;24.90;41.90;;;;;;5085517;28;20054;-75
2021/06/03 08:45:42;;;;;;;3.30;1.70;;;25.00;41.80;;;;;;5094847;28;20051;-76
2021/06/03 08:48:08;;;;;;;5.30;1.95;;;25.20;41.50;;;;;;5070955;28;20090;-75
2021/06/03 08:50:38;;;;;;;4.63;2.30;;;25.30;41.30;;;;;;5067554;28;20470;-75
2021/06/03 08:53:05;;;;;;;4.07;2.10;;;25.50;41.50;;;;;;5074034;28;20052;-74
2021/06/03 08:58:20;;;;;;;7.05;2.15;;;25.80;40.50;;;;;;5074007;28;20044;-74
2021/06/03 09:00:47;;;;;;;8.02;2.05;;;26.00;40.70;;;;;;5072953;28;20028;-75
2021/06/03 09:03:14;;;;;;;7.13;1.90;;;26.10;40.50;;;;;;5073442;28;20112;-74
2021/06/03 09:05:40;;;;;;;2.95;1.80;;;26.30;40.20;;;;;;5073982;28;20387;-74
2021/06/03 09:08:27;;;;;;;3.80;1.85;;;26.70;39.70;;;;;;5073804;28;20033;-74
2021/06/03 09:10:56;;;;;;;4.78;2.20;;;27.20;39.30;;;;;;5073563;28;20064;-75
2021/06/03 09:13:25;;;;;;;7.22;2.55;;;27.80;39.40;;;;;;5068979;28;20033;-74
2021/06/03 09:15:54;;;;;;;5.35;2.15;;;28.20;38.80;;;;;;5062840;28;20082;-81
2021/06/03 09:18:36;;;;;;;8.45;2.00;;;28.60;38.60;;;;;;5061128;28;20090;-73
2021/06/03 09:21:17;;;;;;;6.00;2.20;;;28.90;38.30;;;;;;5061460;28;20056;-74
2021/06/03 09:24:06;;;;;;;3.13;1.80;;;28.80;37.80;;;;;;5061759;28;20116;-74
2021/06/03 09:26:48;;;;;;;4.65;2.20;;;28.50;37.70;;;;;;5063182;28;20025;-74
2021/06/03 09:29:29;;;;;;;9.10;2.20;;;28.50;38.20;;;;;;5072258;28;20360;-74
2021/06/03 09:32:10;;;;;;;12.48;3.00;;;28.90;38.90;;;;;;5073453;28;20021;-73
2021/06/03 09:34:39;;;;;;;7.35;1.88;;;29.60;38.50;;;;;;5073431;28;20371;-74
2021/06/03 09:37:07;;;;;;;2.42;2.20;;;29.50;37.50;;;;;;5072879;28;20475;-75
2021/06/03 09:39:37;;;;;;;6.00;2.17;;;29.20;37.30;;;;;;5073422;28;20020;-74
2021/06/03 09:42:14;;;;;;;13.60;2.30;;;28.80;37.00;;;;;;5073849;28;20098;-75
2021/06/03 09:44:49;;;;;;;16.33;2.80;;;28.60;37.50;;;;;;5073382;28;20032;-74
2021/06/03 09:47:21;;;;;;;6.50;2.25;;;28.40;37.70;;;;;;5073063;28;20028;-75
2021/06/03 09:49:57;;;;;;;8.65;2.17;;;28.20;37.50;;;;;;5073363;28;20022;-75
2021/06/03 09:52:25;;;;;;;10.65;2.40;;;28.40;37.40;;;;;;5073323;28;20082;-74
2021/06/03 09:54:59;;;;;;;5.28;2.30;;;28.60;37.50;;;;;;5073184;28;20058;-75
2021/06/03 09:57:33;;;;;;;6.88;1.90;;;28.50;37.20;;;;;;5073183;28;20047;-75
2021/06/03 10:00:19;;;;;;;5.18;2.25;;;28.20;37.50;;;;;;5072821;28;20444;-75
2021/06/03 10:02:46;;;;;;;3.83;2.45;;;28.00;38.30;;;;;;5071690;28;20115;-75
2021/06/03 10:05:17;;;;;;;3.97;1.85;;;28.10;38.60;;;;;;5072832;28;20077;-75
2021/06/03 10:08:09;;;;;;;5.00;2.05;;;28.10;38.60;;;;;;5069078;28;20448;-75
2021/06/03 10:10:39;;;;;;;4.80;2.10;;;28.10;38.70;;;;;;5057707;28;20052;-74
2021/06/03 10:13:11;;;;;;;4.97;2.13;;;27.90;38.20;;;;;;5057006;28;20112;-75
2021/06/03 10:15:39;;;;;;;5.63;2.00;;;27.40;37.90;;;;;;5057081;28;20535;-74
2021/06/03 10:18:07;;;;;;;4.18;2.10;;;27.00;38.30;;;;;;5056856;28;20037;-74
2021/06/03 10:20:50;;;;;;;9.52;1.98;;;27.00;38.80;;;;;;5056771;28;20467;-75
2021/06/03 10:23:19;;;;;;;5.50;2.00;;;27.30;39.30;;;;;;5057097;28;20055;-74
2021/06/03 10:25:47;;;;;;;7.63;1.80;;;27.60;38.70;;;;;;5056934;28;20413;-75
2021/06/03 10:28:19;;;;;;;8.07;2.20;;;27.70;38.50;;;;;;5056730;28;20085;-74
2021/06/03 10:30:52;;;;;;;4.32;2.30;;;27.60;38.50;;;;;;5056942;28;20036;-75
2021/06/03 10:33:21;;;;;;;4.63;1.97;;;27.40;38.60;;;;;;5056757;28;20025;-73
2021/06/03 10:35:50;;;;;;;9.65;2.63;;;27.20;39.00;;;;;;5056785;28;20024;-74
2021/06/03 10:38:17;;;;;;;13.40;2.58;;;26.70;39.30;;;;;;5056353;28;20045;-74
2021/06/03 10:40:46;;;;;;;7.55;2.72;;;26.50;39.80;;;;;;5055152;28;20120;-75
2021/06/03 10:43:13;;;;;;;7.05;2.70;;;26.40;40.20;;;;;;5056373;28;20025;-74
2021/06/03 10:45:41;;;;;;;3.40;2.00;;;26.30;40.50;;;;;;5064439;28;20040;-75
2021/06/03 10:48:07;;;;;;;6.90;2.38;;;26.10;40.20;;;;;;5076212;28;20037;-75
2021/06/03 10:50:50;;;;;;;7.57;2.50;;;25.80;40.20;;;;;;5076682;28;20116;-75
2021/06/03 10:53:23;;;;;;;4.13;2.00;;;25.50;40.40;;;;;;5076627;28;20069;-75
2021/06/03 10:55:56;;;;;;;8.25;3.00;;;25.00;40.70;;;;;;5087677;28;20043;-75
2021/06/03 10:58:36;;;;;;;6.35;2.28;;;24.70;41.30;;;;;;5075487;28;20385;-74
2021/06/03 11:01:09;;;;;;;7.80;3.35;;;24.60;42.00;;;;;;5074191;28;20374;-74
2021/06/03 11:03:47;;;;;;;5.63;2.42;;;25.00;42.30;;;;;;5075703;28;20375;-75
2021/06/03 11:06:16;;;;;;;5.10;2.38;;;25.80;41.60;;;;;;5075517;28;20025;-75
2021/06/03 11:08:49;;;;;;;6.32;2.25;;;26.20;40.90;;;;;;5076228;28;20078;-74
2021/06/03 11:11:15;;;;;;;6.28;2.45;;;26.40;40.60;;;;;;5076048;28;20467;-74
2021/06/03 11:13:47;;;;;;;9.85;2.55;;;26.20;40.30;;;;;;5076235;28;20038;-75
2021/06/03 11:16:21;;;;;;;12.13;2.85;;;25.90;40.50;;;;;;5076258;28;20052;-75
2021/06/03 11:18:52;;;;;;;14.65;2.50;;;25.60;40.80;;;;;;5074891;28;20090;-75
2021/06/03 11:23:59;;;;;;;6.13;2.58;;;25.60;42.40;;;;;;5075755;28;20028;-81
2021/06/03 11:26:39;;;;;;;4.53;2.42;;;27.00;42.70;;;;;;5075809;28;20474;-75
2021/06/03 11:29:10;;;;;;;8.82;2.30;;;28.70;41.00;;;;;;5075665;28;20032;-75
2021/06/03 11:31:37;;;;;;;6.20;2.80;;;29.90;39.50;;;;;;5075762;28;20412;-76
2021/06/03 11:34:07;;;;;;;6.95;2.33;;;30.30;38.20;;;;;;5075535;28;20058;-75
2021/06/03 11:36:34;;;;;;;8.00;2.78;;;30.30;37.70;;;;;;5067026;28;20123;-74
2021/06/03 11:39:01;;;;;;;6.95;2.30;;;30.10;37.70;;;;;;5064408;28;20510;-76
2021/06/03 11:41:53;;;;;;;6.55;2.38;;;29.70;37.90;;;;;;5065143;28;20028;-74
2021/06/03 11:44:19;;;;;;;8.30;2.83;;;29.20;38.20;;;;;;5060027;28;20045;-75
2021/06/03 11:46:51;;;;;;;6.45;2.97;;;29.30;38.50;;;;;;5062681;28;20028;-75
2021/06/03 11:49:37;;;;;;;6.43;2.30;;;29.70;38.70;;;;;;5063718;28;20100;-74
2021/06/03 11:52:19;;;;;;;6.35;2.60;;;30.70;38.30;;;;;;5064857;28;20021;-76
2021/06/03 11:54:57;;;;;;;6.65;2.50;;;31.70;37.70;;;;;;5063423;28;20028;-74
2021/06/03 11:57:28;;;;;;;4.82;2.15;;;32.60;37.10;;;;;;5064802;28;20054;-77
2021/06/03 12:00:00;;;;;;;6.80;2.15;;;32.70;36.00;;;;;;5064015;28;20459;-73
2021/06/03 12:02:39;;;;;;;2.08;1.90;;;32.20;36.10;;;;;;5064460;28;20028;-74
2021/06/03 12:05:11;;;;;;;6.10;2.92;;;31.80;36.20;;;;;;5075252;28;20040;-74
2021/06/03 12:07:53;;;;;;;9.30;2.70;;;31.40;36.00;;;;;;5073765;28;20028;-74
2021/06/03 12:10:41;;;;;;;3.85;2.42;;;30.80;36.20;;;;;;5074805;28;20025;-75
2021/06/03 12:13:17;;;;;;;6.45;2.70;;;30.10;36.60;;;;;;5074836;28;20020;-74
2021/06/03 12:15:43;;;;;;;16.85;3.50;;;29.20;37.30;;;;;;5074597;28;20108;-75
2021/06/03 12:18:09;;;;;;;6.90;2.70;;;28.60;37.90;;;;;;5074967;28;20437;-74
2021/06/03 12:20:35;;;;;;;8.45;2.92;;;28.00;38.50;;;;;;5074790;28;20029;-74
2021/06/03 12:23:06;;;;;;;4.95;2.28;;;27.80;39.30;;;;;;5073438;28;20056;-77
2021/06/03 12:25:33;;;;;;;5.72;2.30;;;28.30;39.60;;;;;;5074412;28;20089;-74
2021/06/03 12:27:59;;;;;;;3.28;1.90;;;29.10;39.60;;;;;;5074649;28;20120;-74
2021/06/03 12:30:29;;;;;;;11.55;3.55;;;29.90;39.50;;;;;;5074090;28;20112;-75
2021/06/03 12:33:16;;;;;;;6.75;2.13;;;30.60;38.90;;;;;;5067750;28;20024;-74
2021/06/03 12:35:50;;;;;;;4.00;2.50;;;31.50;37.80;;;;;;5053151;28;20078;-75
2021/06/03 12:38:33;;;;;;;7.05;2.80;;;32.30;37.20;;;;;;5056820;28;20032;-75
2021/06/03 12:41:20;;;;;;;5.63;2.63;;;32.90;36.40;;;;;;5061563;28;20029;-74
2021/06/03 12:43:52;;;;;;;4.10;2.38;;;32.70;36.00;;;;;;5053884;28;20041;-76
2021/06/03 12:46:18;;;;;;;6.68;2.65;;;32.40;36.40;;;;;;5061348;28;20331;-74
2021/06/03 12:48:44;;;;;;;5.47;2.58;;;31.90;36.30;;;;;;5054699;28;20028;-74
2021/06/03 12:51:13;;;;;;;6.40;2.35;;;31.90;36.50;;;;;;5054036;28;20028;-75
2021/06/03 12:53:39;;;;;;;3.33;2.20;;;32.10;36.00;;;;;;5058999;28;20417;-75
2021/06/03 12:56:22;;;;;;;8.27;2.30;;;32.00;35.60;;;;;;5061679;28;20135;-74
2021/06/03 12:58:48;;;;;;;3.17;2.28;;;31.60;35.20;;;;;;5057058;28;20364;-76
2021/06/03 13:01:15;;;;;;;5.20;2.75;;;31.00;35.30;;;;;;5060844;28;20063;-75
2021/06/03 13:03:41;;;;;;;6.30;2.30;;;30.80;35.50;;;;;;5068831;28;20103;-75